sensor_id;sensor_type;location;lat;lon;timestamp;P1;durP1;ratioP1;P2;durP2;ratioP2
59960;SDS011;55902;-37.980;-63.602;2023-03-14T01:17:42;14.65;;;9.30;;
59960;SDS011;55902;-37.980;-63.602;2023-03-14T01:20:10;9.25;;;6.57;;
59960;SDS011;55902;-37.980;-63.602;2023-03-14T01:22:42;5.95;;;5.15;;
59960;SDS011;55902;-37.980;-63.602;2023-03-14T01:25:11;4.68;;;4.20;;
59960;SDS011;55902;-37.980;-63.602;2023-03-14T01:27:40;4.65;;;4.00;;
59960;SDS011;55902;-37.980;-63.602;2023-03-14T01:30:07;7.43;;;4.10;;
59960;SDS011;55902;-37.980;-63.602;2023-03-14T01:32:35;4.75;;;3.42;;
59960;SDS011;55902;-37.980;-63.602;2023-03-14T01:35:03;5.57;;;3.10;;
59960;SDS011;55902;-37.980;-63.602;2023-03-14T01:37:34;4.95;;;3.70;;
59960;SDS011;55902;-37.980;-63.602;2023-03-14T01:40:02;5.82;;;4.10;;
59960;SDS011;55902;-37.980;-63.602;2023-03-14T01:42:30;3.15;;;2.83;;
59960;SDS011;55902;-37.980;-63.602;2023-03-14T01:44:58;3.50;;;2.88;;
59960;SDS011;55902;-37.980;-63.602;2023-03-14T01:47:32;3.30;;;2.70;;
59960;SDS011;55902;-37.980;-63.602;2023-03-14T01:50:00;2.72;;;2.53;;
59960;SDS011;55902;-37.980;-63.602;2023-03-14T01:52:40;5.45;;;3.72;;
59960;SDS011;55902;-37.980;-63.602;2023-03-14T01:55:12;5.00;;;3.42;;
59960;SDS011;55902;-37.980;-63.602;2023-03-14T01:58:02;4.63;;;3.80;;
59960;SDS011;55902;-37.980;-63.602;2023-03-14T02:00:33;4.18;;;3.80;;
59960;SDS011;55902;-37.980;-63.602;2023-03-14T02:03:07;4.95;;;3.30;;
59960;SDS011;55902;-37.980;-63.602;2023-03-14T02:05:38;3.85;;;3.45;;
59960;SDS011;55902;-37.980;-63.602;2023-03-14T02:08:10;3.92;;;2.83;;
59960;SDS011;55902;-37.980;-63.602;2023-03-14T02:10:48;3.58;;;3.28;;
59960;SDS011;55902;-37.980;-63.602;2023-03-14T02:13:17;6.22;;;4.45;;
59960;SDS011;55902;-37.980;-63.602;2023-03-14T02:15:45;3.72;;;3.35;;
59960;SDS011;55902;-37.980;-63.602;2023-03-14T02:18:13;3.78;;;3.28;;
59960;SDS011;55902;-37.980;-63.602;2023-03-14T02:29:28;3.85;;;3.42;;
59960;SDS011;55902;-37.980;-63.602;2023-03-14T02:31:57;3.95;;;3.55;;
59960;SDS011;55902;-37.980;-63.602;2023-03-14T02:34:24;4.85;;;3.70;;
59960;SDS011;55902;-37.980;-63.602;2023-03-14T02:36:52;3.47;;;3.10;;
59960;SDS011;55902;-37.980;-63.602;2023-03-14T02:39:27;3.20;;;2.90;;
59960;SDS011;55902;-37.980;-63.602;2023-03-14T02:42:07;3.78;;;3.45;;
59960;SDS011;55902;-37.980;-63.602;2023-03-14T02:44:34;4.90;;;3.95;;
59960;SDS011;55902;-37.980;-63.602;2023-03-14T02:47:11;6.28;;;4.75;;
59960;SDS011;55902;-37.980;-63.602;2023-03-14T02:49:44;4.97;;;3.42;;
59960;SDS011;55902;-37.980;-63.602;2023-03-14T02:52:11;3.00;;;2.80;;
59960;SDS011;55902;-37.980;-63.602;2023-03-14T02:54:38;4.57;;;4.18;;
59960;SDS011;55902;-37.980;-63.602;2023-03-14T02:57:08;3.67;;;3.28;;
59960;SDS011;55902;-37.980;-63.602;2023-03-14T02:59:35;4.55;;;4.15;;
59960;SDS011;55902;-37.980;-63.602;2023-03-14T03:02:05;3.97;;;3.67;;
59960;SDS011;55902;-37.980;-63.602;2023-03-14T03:04:32;4.78;;;4.00;;
59960;SDS011;55902;-37.980;-63.602;2023-03-14T03:07:02;4.28;;;3.88;;
59960;SDS011;55902;-37.980;-63.602;2023-03-14T03:09:32;4.55;;;3.83;;
59960;SDS011;55902;-37.980;-63.602;2023-03-14T03:12:02;5.47;;;4.47;;
59960;SDS011;55902;-37.980;-63.602;2023-03-14T03:14:32;6.22;;;3.78;;
59960;SDS011;55902;-37.980;-63.602;2023-03-14T03:17:05;4.40;;;4.00;;
59960;SDS011;55902;-37.980;-63.602;2023-03-14T03:19:35;4.25;;;3.70;;
59960;SDS011;55902;-37.980;-63.602;2023-03-14T03:22:07;4.25;;;3.78;;
59960;SDS011;55902;-37.980;-63.602;2023-03-14T03:24:37;4.05;;;3.60;;
59960;SDS011;55902;-37.980;-63.602;2023-03-14T03:27:07;3.20;;;2.90;;
59960;SDS011;55902;-37.980;-63.602;2023-03-14T03:29:34;4.50;;;4.10;;
59960;SDS011;55902;-37.980;-63.602;2023-03-14T03:32:03;5.78;;;5.18;;
59960;SDS011;55902;-37.980;-63.602;2023-03-14T03:34:30;5.35;;;4.85;;
59960;SDS011;55902;-37.980;-63.602;2023-03-14T03:36:57;5.50;;;5.00;;
59960;SDS011;55902;-37.980;-63.602;2023-03-14T03:39:24;6.50;;;5.07;;
59960;SDS011;55902;-37.980;-63.602;2023-03-14T03:41:51;4.70;;;4.30;;
59960;SDS011;55902;-37.980;-63.602;2023-03-14T03:44:18;4.40;;;4.00;;
59960;SDS011;55902;-37.980;-63.602;2023-03-14T03:46:45;6.25;;;4.25;;
59960;SDS011;55902;-37.980;-63.602;2023-03-14T03:59:19;5.40;;;4.90;;
59960;SDS011;55902;-37.980;-63.602;2023-03-14T04:01:48;4.43;;;4.00;;
59960;SDS011;55902;-37.980;-63.602;2023-03-14T04:04:16;4.53;;;4.13;;
59960;SDS011;55902;-37.980;-63.602;2023-03-14T04:06:46;4.90;;;4.50;;
59960;SDS011;55902;-37.980;-63.602;2023-03-14T04:09:13;4.80;;;4.28;;
59960;SDS011;55902;-37.980;-63.602;2023-03-14T04:11:40;4.20;;;3.80;;
59960;SDS011;55902;-37.980;-63.602;2023-03-14T04:14:11;4.72;;;4.28;;
59960;SDS011;55902;-37.980;-63.602;2023-03-14T04:16:41;5.07;;;4.57;;
59960;SDS011;55902;-37.980;-63.602;2023-03-14T04:19:11;3.90;;;3.55;;
59960;SDS011;55902;-37.980;-63.602;2023-03-14T04:21:40;5.28;;;4.80;;
59960;SDS011;55902;-37.980;-63.602;2023-03-14T04:24:10;4.70;;;3.22;;
59960;SDS011;55902;-37.980;-63.602;2023-03-14T04:26:40;3.70;;;3.40;;
59960;SDS011;55902;-37.980;-63.602;2023-03-14T04:29:07;5.60;;;4.72;;
59960;SDS011;55902;-37.980;-63.602;2023-03-14T04:31:35;4.30;;;4.00;;
59960;SDS011;55902;-37.980;-63.602;2023-03-14T04:34:02;4.57;;;3.92;;
59960;SDS011;55902;-37.980;-63.602;2023-03-14T04:36:28;6.03;;;5.43;;
59960;SDS011;55902;-37.980;-63.602;2023-03-14T04:38:55;5.13;;;4.65;;
59960;SDS011;55902;-37.980;-63.602;2023-03-14T04:41:22;6.45;;;4.72;;
59960;SDS011;55902;-37.980;-63.602;2023-03-14T04:43:51;4.50;;;4.10;;
59960;SDS011;55902;-37.980;-63.602;2023-03-14T04:46:22;4.20;;;3.80;;
59960;SDS011;55902;-37.980;-63.602;2023-03-14T04:48:52;6.00;;;5.30;;
59960;SDS011;55902;-37.980;-63.602;2023-03-14T04:51:19;3.90;;;3.50;;
59960;SDS011;55902;-37.980;-63.602;2023-03-14T04:53:48;5.15;;;3.90;;
59960;SDS011;55902;-37.980;-63.602;2023-03-14T04:56:15;4.47;;;3.88;;
59960;SDS011;55902;-37.980;-63.602;2023-03-14T04:58:42;4.70;;;4.20;;
59960;SDS011;55902;-37.980;-63.602;2023-03-14T05:01:12;7.47;;;6.68;;
59960;SDS011;55902;-37.980;-63.602;2023-03-14T05:03:39;5.47;;;4.97;;
59960;SDS011;55902;-37.980;-63.602;2023-03-14T05:06:06;9.32;;;8.00;;
59960;SDS011;55902;-37.980;-63.602;2023-03-14T05:08:37;9.27;;;7.38;;
59960;SDS011;55902;-37.980;-63.602;2023-03-14T05:11:09;8.27;;;6.13;;
59960;SDS011;55902;-37.980;-63.602;2023-03-14T05:13:40;8.85;;;5.68;;
59960;SDS011;55902;-37.980;-63.602;2023-03-14T05:16:07;9.07;;;6.70;;
59960;SDS011;55902;-37.980;-63.602;2023-03-14T05:18:36;7.28;;;6.38;;
59960;SDS011;55902;-37.980;-63.602;2023-03-14T05:21:06;10.10;;;8.60;;
59960;SDS011;55902;-37.980;-63.602;2023-03-14T05:23:33;9.27;;;7.57;;
59960;SDS011;55902;-37.980;-63.602;2023-03-14T05:26:00;6.15;;;5.45;;
59960;SDS011;55902;-37.980;-63.602;2023-03-14T05:28:31;5.53;;;5.00;;
59960;SDS011;55902;-37.980;-63.602;2023-03-14T05:31:01;6.13;;;5.53;;
59960;SDS011;55902;-37.980;-63.602;2023-03-14T05:33:33;4.93;;;3.78;;
59960;SDS011;55902;-37.980;-63.602;2023-03-14T05:36:03;5.15;;;4.22;;
59960;SDS011;55902;-37.980;-63.602;2023-03-14T05:38:30;5.57;;;4.50;;
59960;SDS011;55902;-37.980;-63.602;2023-03-14T05:41:00;8.35;;;7.25;;
59960;SDS011;55902;-37.980;-63.602;2023-03-14T05:43:30;6.30;;;5.70;;
59960;SDS011;55902;-37.980;-63.602;2023-03-14T05:45:57;9.93;;;7.95;;
59960;SDS011;55902;-37.980;-63.602;2023-03-14T05:48:26;6.25;;;5.63;;
59960;SDS011;55902;-37.980;-63.602;2023-03-14T05:50:56;6.68;;;5.38;;
59960;SDS011;55902;-37.980;-63.602;2023-03-14T05:53:24;5.00;;;4.50;;
59960;SDS011;55902;-37.980;-63.602;2023-03-14T05:55:55;4.57;;;4.03;;
59960;SDS011;55902;-37.980;-63.602;2023-03-14T05:58:26;5.13;;;4.28;;
59960;SDS011;55902;-37.980;-63.602;2023-03-14T06:00:53;6.50;;;5.72;;
59960;SDS011;55902;-37.980;-63.602;2023-03-14T06:03:20;5.20;;;4.68;;
59960;SDS011;55902;-37.980;-63.602;2023-03-14T06:05:49;6.22;;;5.63;;
59960;SDS011;55902;-37.980;-63.602;2023-03-14T06:08:20;8.30;;;6.88;;
59960;SDS011;55902;-37.980;-63.602;2023-03-14T06:10:47;12.63;;;7.70;;
59960;SDS011;55902;-37.980;-63.602;2023-03-14T06:13:17;11.75;;;8.20;;
59960;SDS011;55902;-37.980;-63.602;2023-03-14T06:15:44;7.95;;;6.45;;
59960;SDS011;55902;-37.980;-63.602;2023-03-14T06:18:14;9.10;;;6.25;;
59960;SDS011;55902;-37.980;-63.602;2023-03-14T06:20:41;5.80;;;4.90;;
59960;SDS011;55902;-37.980;-63.602;2023-03-14T06:23:14;7.55;;;6.78;;
59960;SDS011;55902;-37.980;-63.602;2023-03-14T06:25:44;8.83;;;7.93;;
59960;SDS011;55902;-37.980;-63.602;2023-03-14T06:28:14;7.93;;;6.18;;
59960;SDS011;55902;-37.980;-63.602;2023-03-14T06:30:41;5.95;;;5.35;;
59960;SDS011;55902;-37.980;-63.602;2023-03-14T06:33:11;7.00;;;6.35;;
59960;SDS011;55902;-37.980;-63.602;2023-03-14T06:35:38;5.25;;;4.75;;
59960;SDS011;55902;-37.980;-63.602;2023-03-14T06:38:09;6.93;;;6.32;;
59960;SDS011;55902;-37.980;-63.602;2023-03-14T06:40:39;6.35;;;5.75;;
59960;SDS011;55902;-37.980;-63.602;2023-03-14T06:46:27;5.53;;;4.82;;
59960;SDS011;55902;-37.980;-63.602;2023-03-14T06:48:57;7.15;;;5.68;;
59960;SDS011;55902;-37.980;-63.602;2023-03-14T06:51:27;10.38;;;7.45;;
59960;SDS011;55902;-37.980;-63.602;2023-03-14T06:53:58;20.75;;;12.27;;
59960;SDS011;55902;-37.980;-63.602;2023-03-14T06:56:25;29.95;;;18.13;;
59960;SDS011;55902;-37.980;-63.602;2023-03-14T06:58:55;17.65;;;11.88;;
59960;SDS011;55902;-37.980;-63.602;2023-03-14T07:01:27;18.17;;;11.77;;
59960;SDS011;55902;-37.980;-63.602;2023-03-14T07:03:57;12.45;;;9.32;;
59960;SDS011;55902;-37.980;-63.602;2023-03-14T07:06:25;12.27;;;10.07;;
59960;SDS011;55902;-37.980;-63.602;2023-03-14T07:08:56;10.27;;;8.93;;
59960;SDS011;55902;-37.980;-63.602;2023-03-14T07:11:33;7.95;;;7.15;;
59960;SDS011;55902;-37.980;-63.602;2023-03-14T07:14:00;7.40;;;6.68;;
59960;SDS011;55902;-37.980;-63.602;2023-03-14T07:16:27;10.50;;;9.27;;
59960;SDS011;55902;-37.980;-63.602;2023-03-14T07:19:00;7.53;;;6.82;;
59960;SDS011;55902;-37.980;-63.602;2023-03-14T07:21:28;11.95;;;9.30;;
59960;SDS011;55902;-37.980;-63.602;2023-03-14T07:23:57;6.78;;;5.68;;
59960;SDS011;55902;-37.980;-63.602;2023-03-14T07:26:24;9.68;;;8.68;;
59960;SDS011;55902;-37.980;-63.602;2023-03-14T07:28:54;10.60;;;9.25;;
59960;SDS011;55902;-37.980;-63.602;2023-03-14T07:31:21;9.20;;;8.25;;
59960;SDS011;55902;-37.980;-63.602;2023-03-14T07:33:48;8.93;;;8.05;;
59960;SDS011;55902;-37.980;-63.602;2023-03-14T07:36:18;8.50;;;7.70;;
59960;SDS011;55902;-37.980;-63.602;2023-03-14T07:38:48;9.23;;;8.25;;
59960;SDS011;55902;-37.980;-63.602;2023-03-14T07:41:19;10.93;;;9.65;;
59960;SDS011;55902;-37.980;-63.602;2023-03-14T07:43:48;8.43;;;7.63;;
59960;SDS011;55902;-37.980;-63.602;2023-03-14T07:46:19;8.02;;;7.22;;
59960;SDS011;55902;-37.980;-63.602;2023-03-14T07:48:46;7.30;;;6.32;;
59960;SDS011;55902;-37.980;-63.602;2023-03-14T07:51:23;12.60;;;9.70;;
59960;SDS011;55902;-37.980;-63.602;2023-03-14T07:53:50;11.52;;;10.30;;
59960;SDS011;55902;-37.980;-63.602;2023-03-14T07:56:17;12.90;;;10.90;;
59960;SDS011;55902;-37.980;-63.602;2023-03-14T07:58:44;11.13;;;9.80;;
59960;SDS011;55902;-37.980;-63.602;2023-03-14T08:01:11;11.60;;;10.02;;
59960;SDS011;55902;-37.980;-63.602;2023-03-14T08:03:38;12.88;;;10.50;;
59960;SDS011;55902;-37.980;-63.602;2023-03-14T08:06:05;13.52;;;10.65;;
59960;SDS011;55902;-37.980;-63.602;2023-03-14T08:08:34;11.00;;;9.88;;
59960;SDS011;55902;-37.980;-63.602;2023-03-14T08:11:02;12.85;;;11.48;;
59960;SDS011;55902;-37.980;-63.602;2023-03-14T08:24:17;13.10;;;11.05;;
59960;SDS011;55902;-37.980;-63.602;2023-03-14T08:26:46;10.07;;;8.80;;
59960;SDS011;55902;-37.980;-63.602;2023-03-14T08:29:13;13.32;;;11.52;;
59960;SDS011;55902;-37.980;-63.602;2023-03-14T08:31:40;9.38;;;8.48;;
59960;SDS011;55902;-37.980;-63.602;2023-03-14T08:34:08;11.20;;;10.07;;
59960;SDS011;55902;-37.980;-63.602;2023-03-14T08:36:34;12.07;;;10.60;;
59960;SDS011;55902;-37.980;-63.602;2023-03-14T08:39:01;13.55;;;11.90;;
59960;SDS011;55902;-37.980;-63.602;2023-03-14T08:41:33;12.05;;;10.23;;
59960;SDS011;55902;-37.980;-63.602;2023-03-14T08:44:08;11.00;;;9.90;;
59960;SDS011;55902;-37.980;-63.602;2023-03-14T08:46:39;13.27;;;11.97;;
59960;SDS011;55902;-37.980;-63.602;2023-03-14T08:49:08;10.73;;;9.57;;
59960;SDS011;55902;-37.980;-63.602;2023-03-14T08:51:35;10.88;;;9.85;;
59960;SDS011;55902;-37.980;-63.602;2023-03-14T08:54:02;12.18;;;10.90;;
59960;SDS011;55902;-37.980;-63.602;2023-03-14T08:56:29;9.85;;;8.85;;
59960;SDS011;55902;-37.980;-63.602;2023-03-14T08:58:59;11.18;;;10.07;;
59960;SDS011;55902;-37.980;-63.602;2023-03-14T09:01:26;14.52;;;10.82;;
59960;SDS011;55902;-37.980;-63.602;2023-03-14T09:03:54;11.32;;;10.18;;
59960;SDS011;55902;-37.980;-63.602;2023-03-14T09:06:23;11.57;;;9.38;;
59960;SDS011;55902;-37.980;-63.602;2023-03-14T09:08:50;14.27;;;11.52;;
59960;SDS011;55902;-37.980;-63.602;2023-03-14T09:11:17;10.15;;;9.15;;
59960;SDS011;55902;-37.980;-63.602;2023-03-14T09:13:53;10.80;;;9.73;;
59960;SDS011;55902;-37.980;-63.602;2023-03-14T09:16:20;14.90;;;11.00;;
59960;SDS011;55902;-37.980;-63.602;2023-03-14T09:18:50;11.20;;;10.02;;
59960;SDS011;55902;-37.980;-63.602;2023-03-14T09:21:27;9.73;;;8.38;;
59960;SDS011;55902;-37.980;-63.602;2023-03-14T09:24:00;14.93;;;12.48;;
59960;SDS011;55902;-37.980;-63.602;2023-03-14T09:26:31;25.33;;;16.83;;
59960;SDS011;55902;-37.980;-63.602;2023-03-14T09:28:58;25.88;;;16.42;;
59960;SDS011;55902;-37.980;-63.602;2023-03-14T09:31:25;27.55;;;16.40;;
59960;SDS011;55902;-37.980;-63.602;2023-03-14T09:33:57;29.85;;;18.42;;
59960;SDS011;55902;-37.980;-63.602;2023-03-14T09:36:30;14.60;;;11.48;;
59960;SDS011;55902;-37.980;-63.602;2023-03-14T09:39:17;12.10;;;10.10;;
59960;SDS011;55902;-37.980;-63.602;2023-03-14T09:41:56;13.77;;;11.68;;
59960;SDS011;55902;-37.980;-63.602;2023-03-14T09:47:18;10.63;;;8.82;;
59960;SDS011;55902;-37.980;-63.602;2023-03-14T09:49:55;14.45;;;11.80;;
59960;SDS011;55902;-37.980;-63.602;2023-03-14T09:52:26;9.20;;;8.30;;
59960;SDS011;55902;-37.980;-63.602;2023-03-14T09:55:05;14.95;;;11.88;;
59960;SDS011;55902;-37.980;-63.602;2023-03-14T09:57:35;10.93;;;9.65;;
59960;SDS011;55902;-37.980;-63.602;2023-03-14T10:00:19;16.25;;;12.07;;
59960;SDS011;55902;-37.980;-63.602;2023-03-14T10:03:09;16.38;;;10.95;;
59960;SDS011;55902;-37.980;-63.602;2023-03-14T10:05:57;9.68;;;8.40;;
59960;SDS011;55902;-37.980;-63.602;2023-03-14T10:08:27;14.82;;;11.23;;
59960;SDS011;55902;-37.980;-63.602;2023-03-14T10:10:57;22.75;;;14.18;;
59960;SDS011;55902;-37.980;-63.602;2023-03-14T10:13:26;35.50;;;18.02;;
59960;SDS011;55902;-37.980;-63.602;2023-03-14T10:15:59;40.28;;;21.02;;
59960;SDS011;55902;-37.980;-63.602;2023-03-14T10:18:29;28.42;;;17.27;;
59960;SDS011;55902;-37.980;-63.602;2023-03-14T10:23:48;15.35;;;11.93;;
59960;SDS011;55902;-37.980;-63.602;2023-03-14T10:26:16;20.10;;;12.15;;
59960;SDS011;55902;-37.980;-63.602;2023-03-14T10:28:52;10.68;;;9.63;;
59960;SDS011;55902;-37.980;-63.602;2023-03-14T10:31:45;13.88;;;10.02;;
59960;SDS011;55902;-37.980;-63.602;2023-03-14T10:34:25;10.90;;;9.45;;
59960;SDS011;55902;-37.980;-63.602;2023-03-14T10:37:03;9.20;;;7.95;;
59960;SDS011;55902;-37.980;-63.602;2023-03-14T10:39:50;9.43;;;8.25;;
59960;SDS011;55902;-37.980;-63.602;2023-03-14T10:42:39;10.48;;;9.38;;
59960;SDS011;55902;-37.980;-63.602;2023-03-14T10:48:13;9.57;;;8.68;;
59960;SDS011;55902;-37.980;-63.602;2023-03-14T10:51:05;9.23;;;8.43;;
59960;SDS011;55902;-37.980;-63.602;2023-03-14T10:53:55;15.75;;;11.38;;
59960;SDS011;55902;-37.980;-63.602;2023-03-14T10:56:37;8.90;;;8.05;;
59960;SDS011;55902;-37.980;-63.602;2023-03-14T10:59:07;10.98;;;9.30;;
59960;SDS011;55902;-37.980;-63.602;2023-03-14T11:09:53;15.43;;;11.50;;
59960;SDS011;55902;-37.980;-63.602;2023-03-14T11:15:18;12.07;;;10.82;;
59960;SDS011;55902;-37.980;-63.602;2023-03-14T11:17:58;12.00;;;10.75;;
59960;SDS011;55902;-37.980;-63.602;2023-03-14T11:23:55;12.40;;;10.98;;
59960;SDS011;55902;-37.980;-63.602;2023-03-14T11:30:28;10.95;;;9.85;;
59960;SDS011;55902;-37.980;-63.602;2023-03-14T11:33:37;9.48;;;8.48;;
59960;SDS011;55902;-37.980;-63.602;2023-03-14T11:36:21;13.55;;;11.25;;
59960;SDS011;55902;-37.980;-63.602;2023-03-14T11:38:56;12.98;;;11.60;;
59960;SDS011;55902;-37.980;-63.602;2023-03-14T11:41:36;28.52;;;26.00;;
59960;SDS011;55902;-37.980;-63.602;2023-03-14T11:44:18;11.68;;;10.40;;
59960;SDS011;55902;-37.980;-63.602;2023-03-14T11:46:56;11.32;;;10.23;;
59960;SDS011;55902;-37.980;-63.602;2023-03-14T11:52:03;12.07;;;10.38;;
59960;SDS011;55902;-37.980;-63.602;2023-03-14T11:57:17;12.65;;;11.35;;
59960;SDS011;55902;-37.980;-63.602;2023-03-14T12:02:41;13.38;;;11.43;;
59960;SDS011;55902;-37.980;-63.602;2023-03-14T12:05:46;11.70;;;10.45;;
59960;SDS011;55902;-37.980;-63.602;2023-03-14T12:13:56;10.73;;;8.60;;
59960;SDS011;55902;-37.980;-63.602;2023-03-14T12:21:59;6.50;;;5.90;;
59960;SDS011;55902;-37.980;-63.602;2023-03-14T12:24:30;8.60;;;7.70;;
59960;SDS011;55902;-37.980;-63.602;2023-03-14T12:27:08;7.38;;;6.43;;
59960;SDS011;55902;-37.980;-63.602;2023-03-14T12:30:00;5.68;;;5.07;;
59960;SDS011;55902;-37.980;-63.602;2023-03-14T12:32:27;7.25;;;6.30;;
59960;SDS011;55902;-37.980;-63.602;2023-03-14T12:34:54;6.72;;;6.13;;
59960;SDS011;55902;-37.980;-63.602;2023-03-14T12:37:54;6.55;;;5.85;;
59960;SDS011;55902;-37.980;-63.602;2023-03-14T12:40:21;8.52;;;6.20;;
59960;SDS011;55902;-37.980;-63.602;2023-03-14T12:42:58;5.57;;;5.07;;
59960;SDS011;55902;-37.980;-63.602;2023-03-14T12:50:55;5.63;;;5.13;;
59960;SDS011;55902;-37.980;-63.602;2023-03-14T12:56:25;5.82;;;5.32;;
59960;SDS011;55902;-37.980;-63.602;2023-03-14T12:59:18;6.25;;;5.65;;
59960;SDS011;55902;-37.980;-63.602;2023-03-14T13:04:44;6.25;;;5.65;;
59960;SDS011;55902;-37.980;-63.602;2023-03-14T13:07:28;7.30;;;6.57;;
59960;SDS011;55902;-37.980;-63.602;2023-03-14T13:15:33;6.18;;;5.60;;
59960;SDS011;55902;-37.980;-63.602;2023-03-14T13:18:09;8.40;;;5.97;;
59960;SDS011;55902;-37.980;-63.602;2023-03-14T13:23:24;6.10;;;5.47;;
59960;SDS011;55902;-37.980;-63.602;2023-03-14T13:25:56;5.68;;;4.70;;
59960;SDS011;55902;-37.980;-63.602;2023-03-14T13:28:44;6.43;;;4.50;;
59960;SDS011;55902;-37.980;-63.602;2023-03-14T13:31:18;5.40;;;4.72;;
59960;SDS011;55902;-37.980;-63.602;2023-03-14T13:34:01;4.90;;;4.50;;
59960;SDS011;55902;-37.980;-63.602;2023-03-14T13:36:33;4.65;;;4.25;;
59960;SDS011;55902;-37.980;-63.602;2023-03-14T13:39:06;5.28;;;4.55;;
59960;SDS011;55902;-37.980;-63.602;2023-03-14T13:41:58;5.88;;;4.38;;
59960;SDS011;55902;-37.980;-63.602;2023-03-14T13:44:33;4.38;;;3.97;;
59960;SDS011;55902;-37.980;-63.602;2023-03-14T13:47:03;3.92;;;3.63;;
59960;SDS011;55902;-37.980;-63.602;2023-03-14T13:49:35;4.13;;;3.83;;
59960;SDS011;55902;-37.980;-63.602;2023-03-14T13:52:23;5.72;;;3.70;;
59960;SDS011;55902;-37.980;-63.602;2023-03-14T13:54:54;7.85;;;3.97;;
59960;SDS011;55902;-37.980;-63.602;2023-03-14T13:57:22;4.93;;;3.30;;
59960;SDS011;55902;-37.980;-63.602;2023-03-14T14:00:03;3.80;;;3.40;;
59960;SDS011;55902;-37.980;-63.602;2023-03-14T14:02:41;4.07;;;3.67;;
59960;SDS011;55902;-37.980;-63.602;2023-03-14T14:05:10;4.00;;;3.30;;
59960;SDS011;55902;-37.980;-63.602;2023-03-14T14:10:32;3.92;;;3.38;;
59960;SDS011;55902;-37.980;-63.602;2023-03-14T14:13:14;6.47;;;2.92;;
59960;SDS011;55902;-37.980;-63.602;2023-03-14T14:15:46;4.88;;;3.00;;
59960;SDS011;55902;-37.980;-63.602;2023-03-14T14:18:21;4.93;;;2.80;;
59960;SDS011;55902;-37.980;-63.602;2023-03-14T14:21:05;3.50;;;2.65;;
59960;SDS011;55902;-37.980;-63.602;2023-03-14T14:23:41;4.00;;;2.60;;
59960;SDS011;55902;-37.980;-63.602;2023-03-14T14:26:13;3.75;;;2.40;;
59960;SDS011;55902;-37.980;-63.602;2023-03-14T14:28:43;4.15;;;2.40;;
59960;SDS011;55902;-37.980;-63.602;2023-03-14T14:31:20;5.93;;;2.30;;
59960;SDS011;55902;-37.980;-63.602;2023-03-14T14:34:21;3.78;;;2.10;;
59960;SDS011;55902;-37.980;-63.602;2023-03-14T14:36:51;4.25;;;2.50;;
59960;SDS011;55902;-37.980;-63.602;2023-03-14T14:41:50;2.40;;;2.20;;
59960;SDS011;55902;-37.980;-63.602;2023-03-14T14:44:21;3.95;;;2.63;;
59960;SDS011;55902;-37.980;-63.602;2023-03-14T14:46:57;3.85;;;2.78;;
59960;SDS011;55902;-37.980;-63.602;2023-03-14T14:49:28;2.92;;;2.63;;
59960;SDS011;55902;-37.980;-63.602;2023-03-14T14:54:46;3.30;;;2.97;;
59960;SDS011;55902;-37.980;-63.602;2023-03-14T14:57:20;6.32;;;3.58;;
59960;SDS011;55902;-37.980;-63.602;2023-03-14T15:00:00;3.28;;;2.92;;
59960;SDS011;55902;-37.980;-63.602;2023-03-14T15:02:41;4.13;;;3.20;;
59960;SDS011;55902;-37.980;-63.602;2023-03-14T15:05:19;3.95;;;2.53;;
59960;SDS011;55902;-37.980;-63.602;2023-03-14T15:07:48;4.63;;;2.63;;
59960;SDS011;55902;-37.980;-63.602;2023-03-14T15:10:17;5.03;;;3.10;;
59960;SDS011;55902;-37.980;-63.602;2023-03-14T15:12:46;3.70;;;3.40;;
59960;SDS011;55902;-37.980;-63.602;2023-03-14T15:15:16;4.45;;;3.25;;
59960;SDS011;55902;-37.980;-63.602;2023-03-14T15:17:44;4.07;;;3.10;;
59960;SDS011;55902;-37.980;-63.602;2023-03-14T15:20:48;4.32;;;3.40;;
59960;SDS011;55902;-37.980;-63.602;2023-03-14T15:23:20;4.00;;;2.97;;
59960;SDS011;55902;-37.980;-63.602;2023-03-14T15:25:48;4.88;;;2.60;;
59960;SDS011;55902;-37.980;-63.602;2023-03-14T15:28:18;2.60;;;2.40;;
59960;SDS011;55902;-37.980;-63.602;2023-03-14T15:30:51;4.50;;;2.80;;
59960;SDS011;55902;-37.980;-63.602;2023-03-14T15:33:37;2.63;;;2.35;;
59960;SDS011;55902;-37.980;-63.602;2023-03-14T15:36:05;3.45;;;2.40;;
59960;SDS011;55902;-37.980;-63.602;2023-03-14T15:41:15;2.97;;;2.67;;
59960;SDS011;55902;-37.980;-63.602;2023-03-14T15:43:42;2.88;;;2.60;;
59960;SDS011;55902;-37.980;-63.602;2023-03-14T15:46:12;3.75;;;2.67;;
59960;SDS011;55902;-37.980;-63.602;2023-03-14T15:48:40;2.60;;;2.40;;
59960;SDS011;55902;-37.980;-63.602;2023-03-14T15:51:07;2.80;;;2.60;;
59960;SDS011;55902;-37.980;-63.602;2023-03-14T15:53:39;2.92;;;2.63;;
59960;SDS011;55902;-37.980;-63.602;2023-03-14T15:56:14;2.97;;;2.50;;
59960;SDS011;55902;-37.980;-63.602;2023-03-14T16:01:17;3.05;;;2.22;;
59960;SDS011;55902;-37.980;-63.602;2023-03-14T16:03:44;5.45;;;2.33;;
59960;SDS011;55902;-37.980;-63.602;2023-03-14T16:06:16;4.97;;;2.63;;
59960;SDS011;55902;-37.980;-63.602;2023-03-14T16:08:43;2.92;;;2.67;;
59960;SDS011;55902;-37.980;-63.602;2023-03-14T16:11:14;3.03;;;2.53;;
59960;SDS011;55902;-37.980;-63.602;2023-03-14T16:13:48;3.00;;;2.70;;
59960;SDS011;55902;-37.980;-63.602;2023-03-14T16:16:16;4.38;;;2.47;;
59960;SDS011;55902;-37.980;-63.602;2023-03-14T16:18:46;4.75;;;3.10;;
59960;SDS011;55902;-37.980;-63.602;2023-03-14T16:21:17;3.03;;;2.60;;
59960;SDS011;55902;-37.980;-63.602;2023-03-14T16:23:44;4.07;;;3.20;;
59960;SDS011;55902;-37.980;-63.602;2023-03-14T16:26:13;3.50;;;3.10;;
59960;SDS011;55902;-37.980;-63.602;2023-03-14T16:28:45;3.90;;;3.60;;
59960;SDS011;55902;-37.980;-63.602;2023-03-14T16:31:17;3.83;;;3.10;;
59960;SDS011;55902;-37.980;-63.602;2023-03-14T16:33:49;6.18;;;3.38;;
59960;SDS011;55902;-37.980;-63.602;2023-03-14T16:36:16;3.90;;;3.60;;
59960;SDS011;55902;-37.980;-63.602;2023-03-14T16:38:44;4.68;;;3.72;;
59960;SDS011;55902;-37.980;-63.602;2023-03-14T16:41:15;6.15;;;3.97;;
59960;SDS011;55902;-37.980;-63.602;2023-03-14T16:43:43;4.00;;;3.60;;
59960;SDS011;55902;-37.980;-63.602;2023-03-14T16:46:25;4.20;;;3.80;;
59960;SDS011;55902;-37.980;-63.602;2023-03-14T16:48:53;4.38;;;3.90;;
59960;SDS011;55902;-37.980;-63.602;2023-03-14T16:51:20;3.80;;;3.50;;
59960;SDS011;55902;-37.980;-63.602;2023-03-14T16:53:51;4.50;;;4.10;;
59960;SDS011;55902;-37.980;-63.602;2023-03-14T16:56:23;4.07;;;3.78;;
59960;SDS011;55902;-37.980;-63.602;2023-03-14T16:58:50;3.65;;;2.90;;
59960;SDS011;55902;-37.980;-63.602;2023-03-14T17:01:17;3.00;;;2.42;;
59960;SDS011;55902;-37.980;-63.602;2023-03-14T17:03:46;4.10;;;2.63;;
59960;SDS011;55902;-37.980;-63.602;2023-03-14T17:06:15;3.45;;;2.50;;
59960;SDS011;55902;-37.980;-63.602;2023-03-14T17:08:48;3.88;;;2.38;;
59960;SDS011;55902;-37.980;-63.602;2023-03-14T17:11:15;2.70;;;2.50;;
59960;SDS011;55902;-37.980;-63.602;2023-03-14T17:13:42;3.08;;;2.55;;
59960;SDS011;55902;-37.980;-63.602;2023-03-14T17:16:13;4.05;;;2.53;;
59960;SDS011;55902;-37.980;-63.602;2023-03-14T17:18:40;3.83;;;2.50;;
59960;SDS011;55902;-37.980;-63.602;2023-03-14T17:21:07;2.95;;;2.60;;
59960;SDS011;55902;-37.980;-63.602;2023-03-14T17:23:33;3.20;;;2.75;;
59960;SDS011;55902;-37.980;-63.602;2023-03-14T17:26:00;2.92;;;2.63;;
59960;SDS011;55902;-37.980;-63.602;2023-03-14T17:28:31;3.35;;;2.97;;
59960;SDS011;55902;-37.980;-63.602;2023-03-14T17:33:31;4.07;;;3.08;;
59960;SDS011;55902;-37.980;-63.602;2023-03-14T17:35:59;4.53;;;3.10;;
59960;SDS011;55902;-37.980;-63.602;2023-03-14T17:38:30;4.13;;;2.97;;
59960;SDS011;55902;-37.980;-63.602;2023-03-14T17:41:01;4.53;;;3.33;;